sensor_id;sensor_type;location;lat;lon;timestamp;temperature;humidity
20744;DHT22;56303;52.160;-0.428;2024-02-14T00:00:46;12.50;99.90
20744;DHT22;56303;52.160;-0.428;2024-02-14T00:03:13;12.50;99.90
20744;DHT22;56303;52.160;-0.428;2024-02-14T00:05:40;12.50;99.90
20744;DHT22;56303;52.160;-0.428;2024-02-14T00:08:08;12.60;99.90
20744;DHT22;56303;52.160;-0.428;2024-02-14T00:10:35;12.70;99.90
20744;DHT22;56303;52.160;-0.428;2024-02-14T00:13:01;12.60;99.90
20744;DHT22;56303;52.160;-0.428;2024-02-14T00:15:29;12.70;99.90
20744;DHT22;56303;52.160;-0.428;2024-02-14T00:17:56;12.80;99.90
20744;DHT22;56303;52.160;-0.428;2024-02-14T00:20:23;12.70;99.90
20744;DHT22;56303;52.160;-0.428;2024-02-14T00:22:51;12.70;99.90
20744;DHT22;56303;52.160;-0.428;2024-02-14T00:25:18;12.80;99.90
20744;DHT22;56303;52.160;-0.428;2024-02-14T00:27:46;12.90;99.90
20744;DHT22;56303;52.160;-0.428;2024-02-14T00:30:13;12.70;99.90
20744;DHT22;56303;52.160;-0.428;2024-02-14T00:32:40;12.80;99.90
20744;DHT22;56303;52.160;-0.428;2024-02-14T00:35:08;12.60;99.90
20744;DHT22;56303;52.160;-0.428;2024-02-14T00:37:35;12.80;99.90
20744;DHT22;56303;52.160;-0.428;2024-02-14T00:40:02;13.10;99.90
20744;DHT22;56303;52.160;-0.428;2024-02-14T00:42:29;13.20;99.90
20744;DHT22;56303;52.160;-0.428;2024-02-14T00:44:56;13.10;99.90
20744;DHT22;56303;52.160;-0.428;2024-02-14T00:47:23;13.10;99.90
20744;DHT22;56303;52.160;-0.428;2024-02-14T00:49:50;12.90;99.90
20744;DHT22;56303;52.160;-0.428;2024-02-14T00:52:17;12.90;99.90
20744;DHT22;56303;52.160;-0.428;2024-02-14T00:54:44;12.70;99.90
20744;DHT22;56303;52.160;-0.428;2024-02-14T00:57:11;12.80;99.90
20744;DHT22;56303;52.160;-0.428;2024-02-14T00:59:39;12.80;99.90
20744;DHT22;56303;52.160;-0.428;2024-02-14T01:02:06;12.90;99.90
20744;DHT22;56303;52.160;-0.428;2024-02-14T01:04:33;13.00;99.90
20744;DHT22;56303;52.160;-0.428;2024-02-14T01:07:03;12.80;99.90
20744;DHT22;56303;52.160;-0.428;2024-02-14T01:09:30;12.70;99.90
20744;DHT22;56303;52.160;-0.428;2024-02-14T01:11:58;12.60;99.90
20744;DHT22;56303;52.160;-0.428;2024-02-14T01:14:25;12.60;99.90
20744;DHT22;56303;52.160;-0.428;2024-02-14T01:16:52;12.20;99.90
20744;DHT22;56303;52.160;-0.428;2024-02-14T01:19:20;12.40;99.90
20744;DHT22;56303;52.160;-0.428;2024-02-14T01:21:48;12.40;99.90
20744;DHT22;56303;52.160;-0.428;2024-02-14T01:24:15;12.40;99.90
20744;DHT22;56303;52.160;-0.428;2024-02-14T01:26:43;12.40;99.90
20744;DHT22;56303;52.160;-0.428;2024-02-14T01:29:10;12.40;99.90
20744;DHT22;56303;52.160;-0.428;2024-02-14T01:31:37;12.20;99.90
20744;DHT22;56303;52.160;-0.428;2024-02-14T01:34:03;12.40;99.90
20744;DHT22;56303;52.160;-0.428;2024-02-14T01:36:31;12.40;99.90
20744;DHT22;56303;52.160;-0.428;2024-02-14T01:38:58;13.80;99.90
20744;DHT22;56303;52.160;-0.428;2024-02-14T01:41:25;12.80;99.90
20744;DHT22;56303;52.160;-0.428;2024-02-14T01:43:52;12.70;99.90
20744;DHT22;56303;52.160;-0.428;2024-02-14T01:46:19;12.70;99.90
20744;DHT22;56303;52.160;-0.428;2024-02-14T01:48:46;12.60;99.90
20744;DHT22;56303;52.160;-0.428;2024-02-14T01:51:15;12.60;99.90
20744;DHT22;56303;52.160;-0.428;2024-02-14T01:53:44;12.50;99.90
20744;DHT22;56303;52.160;-0.428;2024-02-14T01:56:12;12.70;99.90
20744;DHT22;56303;52.160;-0.428;2024-02-14T01:58:39;12.60;99.90
20744;DHT22;56303;52.160;-0.428;2024-02-14T02:01:06;12.40;99.90
20744;DHT22;56303;52.160;-0.428;2024-02-14T02:03:34;12.40;99.90
20744;DHT22;56303;52.160;-0.428;2024-02-14T02:06:05;12.40;99.90
20744;DHT22;56303;52.160;-0.428;2024-02-14T02:08:32;12.40;99.90
20744;DHT22;56303;52.160;-0.428;2024-02-14T02:10:59;12.40;99.90
20744;DHT22;56303;52.160;-0.428;2024-02-14T02:13:26;12.50;99.90
20744;DHT22;56303;52.160;-0.428;2024-02-14T02:15:54;12.50;99.90
20744;DHT22;56303;52.160;-0.428;2024-02-14T02:18:21;12.60;99.90
20744;DHT22;56303;52.160;-0.428;2024-02-14T02:20:48;12.60;99.90
20744;DHT22;56303;52.160;-0.428;2024-02-14T02:23:15;12.80;99.90
20744;DHT22;56303;52.160;-0.428;2024-02-14T02:25:43;12.60;99.90
20744;DHT22;56303;52.160;-0.428;2024-02-14T02:28:10;12.70;99.90
20744;DHT22;56303;52.160;-0.428;2024-02-14T02:30:37;12.60;99.90
20744;DHT22;56303;52.160;-0.428;2024-02-14T02:33:05;12.70;99.90
20744;DHT22;56303;52.160;-0.428;2024-02-14T02:35:34;12.60;99.90
20744;DHT22;56303;52.160;-0.428;2024-02-14T02:38:01;12.70;99.90
20744;DHT22;56303;52.160;-0.428;2024-02-14T02:40:28;12.80;99.90
20744;DHT22;56303;52.160;-0.428;2024-02-14T02:42:55;12.60;99.90
20744;DHT22;56303;52.160;-0.428;2024-02-14T02:45:22;12.70;99.90
20744;DHT22;56303;52.160;-0.428;2024-02-14T02:47:49;12.60;99.90
20744;DHT22;56303;52.160;-0.428;2024-02-14T02:50:19;12.60;99.90
20744;DHT22;56303;52.160;-0.428;2024-02-14T02:52:49;12.50;99.90
20744;DHT22;56303;52.160;-0.428;2024-02-14T02:55:15;12.50;99.90
20744;DHT22;56303;52.160;-0.428;2024-02-14T02:57:44;12.60;99.90
20744;DHT22;56303;52.160;-0.428;2024-02-14T03:00:12;12.70;99.90
20744;DHT22;56303;52.160;-0.428;2024-02-14T03:02:40;12.60;99.90
20744;DHT22;56303;52.160;-0.428;2024-02-14T03:05:12;12.40;99.90
20744;DHT22;56303;52.160;-0.428;2024-02-14T03:07:45;12.40;99.90
20744;DHT22;56303;52.160;-0.428;2024-02-14T03:10:14;12.40;99.90
20744;DHT22;56303;52.160;-0.428;2024-02-14T03:12:48;12.30;99.90
20744;DHT22;56303;52.160;-0.428;2024-02-14T03:15:15;12.40;99.90
20744;DHT22;56303;52.160;-0.428;2024-02-14T03:17:42;12.20;99.90
20744;DHT22;56303;52.160;-0.428;2024-02-14T03:20:11;12.30;99.90
20744;DHT22;56303;52.160;-0.428;2024-02-14T03:22:43;12.50;99.90
20744;DHT22;56303;52.160;-0.428;2024-02-14T03:25:18;12.60;99.90
20744;DHT22;56303;52.160;-0.428;2024-02-14T03:27:46;12.60;99.90
20744;DHT22;56303;52.160;-0.428;2024-02-14T03:30:15;12.50;99.90
20744;DHT22;56303;52.160;-0.428;2024-02-14T03:32:45;12.50;99.90
20744;DHT22;56303;52.160;-0.428;2024-02-14T03:35:13;12.30;99.90
20744;DHT22;56303;52.160;-0.428;2024-02-14T03:37:41;12.20;99.90
20744;DHT22;56303;52.160;-0.428;2024-02-14T03:40:08;12.20;99.90
20744;DHT22;56303;52.160;-0.428;2024-02-14T03:42:36;12.40;99.90
20744;DHT22;56303;52.160;-0.428;2024-02-14T03:45:09;12.50;99.90
20744;DHT22;56303;52.160;-0.428;2024-02-14T03:47:36;12.60;99.90
20744;DHT22;56303;52.160;-0.428;2024-02-14T03:50:08;12.70;99.90
20744;DHT22;56303;52.160;-0.428;2024-02-14T03:52:35;12.40;99.90
20744;DHT22;56303;52.160;-0.428;2024-02-14T03:55:02;12.40;99.90
20744;DHT22;56303;52.160;-0.428;2024-02-14T03:57:29;12.40;99.90
20744;DHT22;56303;52.160;-0.428;2024-02-14T03:59:59;12.50;99.90
20744;DHT22;56303;52.160;-0.428;2024-02-14T04:02:26;12.50;99.90
20744;DHT22;56303;52.160;-0.428;2024-02-14T04:04:55;12.60;99.90
20744;DHT22;56303;52.160;-0.428;2024-02-14T04:07:22;12.50;99.90
20744;DHT22;56303;52.160;-0.428;2024-02-14T04:09:49;12.60;99.90
20744;DHT22;56303;52.160;-0.428;2024-02-14T04:12:15;12.70;99.90
20744;DHT22;56303;52.160;-0.428;2024-02-14T04:14:42;12.70;99.90
20744;DHT22;56303;52.160;-0.428;2024-02-14T04:17:09;12.80;99.90
20744;DHT22;56303;52.160;-0.428;2024-02-14T04:19:39;12.70;99.90
20744;DHT22;56303;52.160;-0.428;2024-02-14T04:22:06;12.80;99.90
20744;DHT22;56303;52.160;-0.428;2024-02-14T04:24:34;12.90;99.90
20744;DHT22;56303;52.160;-0.428;2024-02-14T04:27:01;12.90;99.90
20744;DHT22;56303;52.160;-0.428;2024-02-14T04:29:32;13.00;99.90
20744;DHT22;56303;52.160;-0.428;2024-02-14T04:32:00;12.30;99.90
20744;DHT22;56303;52.160;-0.428;2024-02-14T04:34:27;12.80;99.90
20744;DHT22;56303;52.160;-0.428;2024-02-14T04:36:54;12.90;99.90
20744;DHT22;56303;52.160;-0.428;2024-02-14T04:39:21;12.90;99.90
20744;DHT22;56303;52.160;-0.428;2024-02-14T04:41:48;12.90;99.90
20744;DHT22;56303;52.160;-0.428;2024-02-14T04:44:28;12.90;99.90
20744;DHT22;56303;52.160;-0.428;2024-02-14T04:46:55;12.90;99.90
20744;DHT22;56303;52.160;-0.428;2024-02-14T04:49:23;12.70;99.90
20744;DHT22;56303;52.160;-0.428;2024-02-14T04:51:51;12.60;99.90
20744;DHT22;56303;52.160;-0.428;2024-02-14T04:54:19;12.90;99.90
20744;DHT22;56303;52.160;-0.428;2024-02-14T04:56:46;12.90;99.90
20744;DHT22;56303;52.160;-0.428;2024-02-14T04:59:16;13.00;99.90
20744;DHT22;56303;52.160;-0.428;2024-02-14T05:01:43;13.00;99.90
20744;DHT22;56303;52.160;-0.428;2024-02-14T05:04:10;12.90;99.90
20744;DHT22;56303;52.160;-0.428;2024-02-14T05:06:37;13.00;99.90
20744;DHT22;56303;52.160;-0.428;2024-02-14T05:09:05;13.00;99.90
20744;DHT22;56303;52.160;-0.428;2024-02-14T05:11:32;12.90;99.90
20744;DHT22;56303;52.160;-0.428;2024-02-14T05:13:59;12.90;99.90
20744;DHT22;56303;52.160;-0.428;2024-02-14T05:16:28;13.10;99.90
20744;DHT22;56303;52.160;-0.428;2024-02-14T05:18:55;12.90;99.90
20744;DHT22;56303;52.160;-0.428;2024-02-14T05:21:22;13.00;99.90
20744;DHT22;56303;52.160;-0.428;2024-02-14T05:23:49;13.00;99.90
20744;DHT22;56303;52.160;-0.428;2024-02-14T05:26:17;13.00;99.90
20744;DHT22;56303;52.160;-0.428;2024-02-14T05:28:44;13.20;99.90
20744;DHT22;56303;52.160;-0.428;2024-02-14T05:31:10;13.10;99.90
20744;DHT22;56303;52.160;-0.428;2024-02-14T05:33:37;13.00;99.90
20744;DHT22;56303;52.160;-0.428;2024-02-14T05:36:05;13.10;99.90
20744;DHT22;56303;52.160;-0.428;2024-02-14T05:38:32;12.90;99.90
20744;DHT22;56303;52.160;-0.428;2024-02-14T05:41:01;12.90;99.90
20744;DHT22;56303;52.160;-0.428;2024-02-14T05:43:28;13.00;99.90
20744;DHT22;56303;52.160;-0.428;2024-02-14T05:45:55;12.90;99.90
20744;DHT22;56303;52.160;-0.428;2024-02-14T05:48:22;13.00;99.90
20744;DHT22;56303;52.160;-0.428;2024-02-14T05:50:49;12.90;99.90
20744;DHT22;56303;52.160;-0.428;2024-02-14T05:53:16;13.10;99.90
20744;DHT22;56303;52.160;-0.428;2024-02-14T05:55:43;13.10;99.90
20744;DHT22;56303;52.160;-0.428;2024-02-14T05:58:10;13.00;99.90
20744;DHT22;56303;52.160;-0.428;2024-02-14T06:00:38;13.10;99.90
20744;DHT22;56303;52.160;-0.428;2024-02-14T06:03:05;13.10;99.90
20744;DHT22;56303;52.160;-0.428;2024-02-14T06:05:34;13.10;99.90
20744;DHT22;56303;52.160;-0.428;2024-02-14T06:08:01;13.10;99.90
20744;DHT22;56303;52.160;-0.428;2024-02-14T06:10:30;13.30;99.90
20744;DHT22;56303;52.160;-0.428;2024-02-14T06:12:56;13.20;99.90
20744;DHT22;56303;52.160;-0.428;2024-02-14T06:15:23;13.00;99.90
20744;DHT22;56303;52.160;-0.428;2024-02-14T06:17:50;12.90;99.90
20744;DHT22;56303;52.160;-0.428;2024-02-14T06:20:18;13.00;99.90
20744;DHT22;56303;52.160;-0.428;2024-02-14T06:22:45;13.20;99.90
20744;DHT22;56303;52.160;-0.428;2024-02-14T06:25:26;13.30;99.90
20744;DHT22;56303;52.160;-0.428;2024-02-14T06:27:53;13.10;99.90
20744;DHT22;56303;52.160;-0.428;2024-02-14T06:30:23;13.20;99.90
20744;DHT22;56303;52.160;-0.428;2024-02-14T06:32:52;13.30;99.90
20744;DHT22;56303;52.160;-0.428;2024-02-14T06:35:19;13.10;99.90
20744;DHT22;56303;52.160;-0.428;2024-02-14T06:37:47;13.20;99.90
20744;DHT22;56303;52.160;-0.428;2024-02-14T06:40:28;13.30;99.90
20744;DHT22;56303;52.160;-0.428;2024-02-14T06:42:56;13.10;99.90
20744;DHT22;56303;52.160;-0.428;2024-02-14T06:45:26;13.40;99.90
20744;DHT22;56303;52.160;-0.428;2024-02-14T06:47:54;13.30;99.90
20744;DHT22;56303;52.160;-0.428;2024-02-14T06:50:22;13.50;99.90
20744;DHT22;56303;52.160;-0.428;2024-02-14T06:52:49;13.40;99.90
20744;DHT22;56303;52.160;-0.428;2024-02-14T06:55:16;13.50;99.90
20744;DHT22;56303;52.160;-0.428;2024-02-14T06:57:43;13.40;99.90
20744;DHT22;56303;52.160;-0.428;2024-02-14T07:00:10;13.30;99.90
20744;DHT22;56303;52.160;-0.428;2024-02-14T07:02:37;13.20;99.90
20744;DHT22;56303;52.160;-0.428;2024-02-14T07:05:04;13.20;99.90
20744;DHT22;56303;52.160;-0.428;2024-02-14T07:07:34;13.20;99.90
20744;DHT22;56303;52.160;-0.428;2024-02-14T07:10:01;13.10;99.90
20744;DHT22;56303;52.160;-0.428;2024-02-14T07:12:28;13.10;99.90
20744;DHT22;56303;52.160;-0.428;2024-02-14T07:14:57;13.30;99.90
20744;DHT22;56303;52.160;-0.428;2024-02-14T07:17:24;13.30;99.90
20744;DHT22;56303;52.160;-0.428;2024-02-14T07:19:51;13.30;99.90
20744;DHT22;56303;52.160;-0.428;2024-02-14T07:22:18;13.30;99.90
20744;DHT22;56303;52.160;-0.428;2024-02-14T07:24:48;13.30;99.90
20744;DHT22;56303;52.160;-0.428;2024-02-14T07:27:15;13.20;99.90
20744;DHT22;56303;52.160;-0.428;2024-02-14T07:29:43;13.20;99.90
20744;DHT22;56303;52.160;-0.428;2024-02-14T07:32:11;13.20;99.90
20744;DHT22;56303;52.160;-0.428;2024-02-14T07:34:39;13.20;99.90
20744;DHT22;56303;52.160;-0.428;2024-02-14T07:37:07;13.10;99.90
20744;DHT22;56303;52.160;-0.428;2024-02-14T07:39:34;13.10;99.90
20744;DHT22;56303;52.160;-0.428;2024-02-14T07:42:04;13.30;99.90
20744;DHT22;56303;52.160;-0.428;2024-02-14T07:44:31;13.30;99.90
20744;DHT22;56303;52.160;-0.428;2024-02-14T07:46:59;13.40;99.90
20744;DHT22;56303;52.160;-0.428;2024-02-14T07:49:30;13.60;99.90
20744;DHT22;56303;52.160;-0.428;2024-02-14T07:51:57;13.60;99.90
20744;DHT22;56303;52.160;-0.428;2024-02-14T07:54:24;13.20;99.90
20744;DHT22;56303;52.160;-0.428;2024-02-14T07:56:51;13.40;99.90
20744;DHT22;56303;52.160;-0.428;2024-02-14T07:59:18;13.50;99.90
20744;DHT22;56303;52.160;-0.428;2024-02-14T08:01:47;13.40;99.90
20744;DHT22;56303;52.160;-0.428;2024-02-14T08:04:14;13.20;99.90
20744;DHT22;56303;52.160;-0.428;2024-02-14T08:06:44;13.50;99.90
20744;DHT22;56303;52.160;-0.428;2024-02-14T08:09:11;13.70;99.90
20744;DHT22;56303;52.160;-0.428;2024-02-14T08:11:38;13.60;99.90
20744;DHT22;56303;52.160;-0.428;2024-02-14T08:14:05;13.60;99.90
20744;DHT22;56303;52.160;-0.428;2024-02-14T08:16:32;13.70;99.90
20744;DHT22;56303;52.160;-0.428;2024-02-14T08:18:59;13.70;99.90
20744;DHT22;56303;52.160;-0.428;2024-02-14T08:21:27;13.90;99.90
20744;DHT22;56303;52.160;-0.428;2024-02-14T08:23:58;13.90;99.90
20744;DHT22;56303;52.160;-0.428;2024-02-14T08:26:27;14.00;99.90
20744;DHT22;56303;52.160;-0.428;2024-02-14T08:28:55;14.00;99.90
20744;DHT22;56303;52.160;-0.428;2024-02-14T08:31:22;13.90;99.90
20744;DHT22;56303;52.160;-0.428;2024-02-14T08:33:49;13.70;99.90
20744;DHT22;56303;52.160;-0.428;2024-02-14T08:36:17;14.00;99.90
20744;DHT22;56303;52.160;-0.428;2024-02-14T08:38:46;14.00;99.90
20744;DHT22;56303;52.160;-0.428;2024-02-14T08:41:14;14.00;99.90
20744;DHT22;56303;52.160;-0.428;2024-02-14T08:43:41;13.70;99.90
20744;DHT22;56303;52.160;-0.428;2024-02-14T08:46:13;13.70;99.90
20744;DHT22;56303;52.160;-0.428;2024-02-14T08:48:41;13.80;99.90
20744;DHT22;56303;52.160;-0.428;2024-02-14T08:51:14;14.00;99.90
20744;DHT22;56303;52.160;-0.428;2024-02-14T08:53:41;14.20;99.90
20744;DHT22;56303;52.160;-0.428;2024-02-14T08:56:12;13.90;99.90
20744;DHT22;56303;52.160;-0.428;2024-02-14T08:58:40;14.10;99.90
20744;DHT22;56303;52.160;-0.428;2024-02-14T09:01:06;13.90;99.90
20744;DHT22;56303;52.160;-0.428;2024-02-14T09:03:44;14.00;99.90
20744;DHT22;56303;52.160;-0.428;2024-02-14T09:06:17;13.90;99.90
20744;DHT22;56303;52.160;-0.428;2024-02-14T09:08:48;13.90;99.90
20744;DHT22;56303;52.160;-0.428;2024-02-14T09:11:17;13.90;99.90
20744;DHT22;56303;52.160;-0.428;2024-02-14T09:13:45;13.90;99.90
20744;DHT22;56303;52.160;-0.428;2024-02-14T09:16:14;13.90;99.90
20744;DHT22;56303;52.160;-0.428;2024-02-14T09:18:45;13.90;99.90
20744;DHT22;56303;52.160;-0.428;2024-02-14T09:21:13;13.90;99.90
20744;DHT22;56303;52.160;-0.428;2024-02-14T09:23:46;13.80;99.90
20744;DHT22;56303;52.160;-0.428;2024-02-14T09:26:13;13.90;99.90
20744;DHT22;56303;52.160;-0.428;2024-02-14T09:28:40;14.00;99.90
20744;DHT22;56303;52.160;-0.428;2024-02-14T09:31:07;13.90;99.90
20744;DHT22;56303;52.160;-0.428;2024-02-14T09:33:40;14.00;99.90
20744;DHT22;56303;52.160;-0.428;2024-02-14T09:36:08;14.10;99.90
20744;DHT22;56303;52.160;-0.428;2024-02-14T09:38:36;14.10;99.90
20744;DHT22;56303;52.160;-0.428;2024-02-14T09:41:15;14.00;99.90
20744;DHT22;56303;52.160;-0.428;2024-02-14T09:43:46;13.90;99.90
20744;DHT22;56303;52.160;-0.428;2024-02-14T09:46:16;14.00;99.90
20744;DHT22;56303;52.160;-0.428;2024-02-14T09:48:44;13.80;99.90
20744;DHT22;56303;52.160;-0.428;2024-02-14T09:51:12;13.70;99.90
20744;DHT22;56303;52.160;-0.428;2024-02-14T09:53:40;14.00;99.90
20744;DHT22;56303;52.160;-0.428;2024-02-14T09:56:10;14.00;99.90
20744;DHT22;56303;52.160;-0.428;2024-02-14T09:58:37;13.80;99.90
20744;DHT22;56303;52.160;-0.428;2024-02-14T10:01:04;14.00;99.90
20744;DHT22;56303;52.160;-0.428;2024-02-14T10:03:33;14.00;99.90
20744;DHT22;56303;52.160;-0.428;2024-02-14T10:06:02;14.10;99.90
20744;DHT22;56303;52.160;-0.428;2024-02-14T10:08:32;14.10;99.90
20744;DHT22;56303;52.160;-0.428;2024-02-14T10:11:00;13.90;99.90
20744;DHT22;56303;52.160;-0.428;2024-02-14T10:13:27;13.90;99.90
20744;DHT22;56303;52.160;-0.428;2024-02-14T10:15:56;14.10;99.90
20744;DHT22;56303;52.160;-0.428;2024-02-14T10:18:23;14.20;99.90
20744;DHT22;56303;52.160;-0.428;2024-02-14T10:20:55;14.50;99.90
20744;DHT22;56303;52.160;-0.428;2024-02-14T10:23:22;14.70;99.90
20744;DHT22;56303;52.160;-0.428;2024-02-14T10:25:53;14.70;99.90
20744;DHT22;56303;52.160;-0.428;2024-02-14T10:28:23;14.80;99.90
20744;DHT22;56303;52.160;-0.428;2024-02-14T10:31:02;14.90;99.90
20744;DHT22;56303;52.160;-0.428;2024-02-14T10:33:29;14.80;99.90
20744;DHT22;56303;52.160;-0.428;2024-02-14T10:35:57;15.00;99.90
20744;DHT22;56303;52.160;-0.428;2024-02-14T10:38:31;14.90;99.90
20744;DHT22;56303;52.160;-0.428;2024-02-14T10:41:03;14.80;99.90
20744;DHT22;56303;52.160;-0.428;2024-02-14T10:43:33;14.70;99.90
20744;DHT22;56303;52.160;-0.428;2024-02-14T10:46:05;14.60;99.90
20744;DHT22;56303;52.160;-0.428;2024-02-14T10:48:35;14.60;99.90
20744;DHT22;56303;52.160;-0.428;2024-02-14T10:51:08;14.40;99.90
20744;DHT22;56303;52.160;-0.428;2024-02-14T10:53:39;14.40;99.90
20744;DHT22;56303;52.160;-0.428;2024-02-14T10:56:17;14.20;99.90
20744;DHT22;56303;52.160;-0.428;2024-02-14T10:58:47;14.30;99.90
20744;DHT22;56303;52.160;-0.428;2024-02-14T11:01:16;14.40;99.90
20744;DHT22;56303;52.160;-0.428;2024-02-14T11:03:44;14.70;99.90
20744;DHT22;56303;52.160;-0.428;2024-02-14T11:06:16;14.70;99.90
20744;DHT22;56303;52.160;-0.428;2024-02-14T11:09:16;14.70;99.90
20744;DHT22;56303;52.160;-0.428;2024-02-14T11:11:44;14.80;99.90
20744;DHT22;56303;52.160;-0.428;2024-02-14T11:14:18;14.90;99.90
20744;DHT22;56303;52.160;-0.428;2024-02-14T11:16:49;14.80;99.90
20744;DHT22;56303;52.160;-0.428;2024-02-14T11:19:18;14.80;99.90
20744;DHT22;56303;52.160;-0.428;2024-02-14T11:21:47;14.90;99.90
20744;DHT22;56303;52.160;-0.428;2024-02-14T11:24:15;14.80;99.90
20744;DHT22;56303;52.160;-0.428;2024-02-14T11:26:47;14.80;99.90
20744;DHT22;56303;52.160;-0.428;2024-02-14T11:29:17;15.00;99.90
20744;DHT22;56303;52.160;-0.428;2024-02-14T11:32:00;15.10;99.90
20744;DHT22;56303;52.160;-0.428;2024-02-14T11:34:29;15.10;99.90
20744;DHT22;56303;52.160;-0.428;2024-02-14T11:37:04;15.00;99.90
20744;DHT22;56303;52.160;-0.428;2024-02-14T11:39:33;15.10;99.90
20744;DHT22;56303;52.160;-0.428;2024-02-14T11:42:01;15.30;99.90
20744;DHT22;56303;52.160;-0.428;2024-02-14T11:44:28;15.40;99.90
20744;DHT22;56303;52.160;-0.428;2024-02-14T11:46:55;15.30;99.90
20744;DHT22;56303;52.160;-0.428;2024-02-14T11:49:22;15.10;99.90
20744;DHT22;56303;52.160;-0.428;2024-02-14T11:51:49;15.10;99.90
20744;DHT22;56303;52.160;-0.428;2024-02-14T11:54:16;15.10;99.90
20744;DHT22;56303;52.160;-0.428;2024-02-14T11:56:45;15.10;99.90
20744;DHT22;56303;52.160;-0.428;2024-02-14T11:59:13;15.40;99.90
20744;DHT22;56303;52.160;-0.428;2024-02-14T12:01:42;15.30;99.90
20744;DHT22;56303;52.160;-0.428;2024-02-14T12:04:10;15.20;99.90
20744;DHT22;56303;52.160;-0.428;2024-02-14T12:06:39;15.40;99.90
20744;DHT22;56303;52.160;-0.428;2024-02-14T12:09:09;15.40;99.90
20744;DHT22;56303;52.160;-0.428;2024-02-14T12:11:38;15.40;99.90
20744;DHT22;56303;52.160;-0.428;2024-02-14T12:14:06;15.30;99.90
20744;DHT22;56303;52.160;-0.428;2024-02-14T12:16:34;15.30;99.90
20744;DHT22;56303;52.160;-0.428;2024-02-14T12:19:13;15.50;99.90
20744;DHT22;56303;52.160;-0.428;2024-02-14T12:21:42;15.60;99.90
20744;DHT22;56303;52.160;-0.428;2024-02-14T12:24:15;15.60;99.90
20744;DHT22;56303;52.160;-0.428;2024-02-14T12:26:42;15.60;99.90
20744;DHT22;56303;52.160;-0.428;2024-02-14T12:29:13;15.70;99.90
20744;DHT22;56303;52.160;-0.428;2024-02-14T12:31:40;15.80;99.90
20744;DHT22;56303;52.160;-0.428;2024-02-14T12:34:11;15.70;99.90
20744;DHT22;56303;52.160;-0.428;2024-02-14T12:36:39;15.60;99.90
20744;DHT22;56303;52.160;-0.428;2024-02-14T12:39:06;15.20;99.90
20744;DHT22;56303;52.160;-0.428;2024-02-14T12:41:36;15.30;99.90
20744;DHT22;56303;52.160;-0.428;2024-02-14T12:44:06;15.60;99.90
20744;DHT22;56303;52.160;-0.428;2024-02-14T12:46:33;15.60;99.90
20744;DHT22;56303;52.160;-0.428;2024-02-14T12:49:01;15.50;99.90
20744;DHT22;56303;52.160;-0.428;2024-02-14T12:51:28;15.70;99.90
20744;DHT22;56303;52.160;-0.428;2024-02-14T12:53:56;15.70;99.90
20744;DHT22;56303;52.160;-0.428;2024-02-14T12:56:23;16.00;99.90
20744;DHT22;56303;52.160;-0.428;2024-02-14T12:58:50;15.90;99.90
20744;DHT22;56303;52.160;-0.428;2024-02-14T13:01:17;15.60;99.90
20744;DHT22;56303;52.160;-0.428;2024-02-14T13:03:45;15.60;99.90
20744;DHT22;56303;52.160;-0.428;2024-02-14T13:06:12;15.70;99.90
20744;DHT22;56303;52.160;-0.428;2024-02-14T13:08:41;15.70;99.90
20744;DHT22;56303;52.160;-0.428;2024-02-14T13:11:09;15.70;99.90
20744;DHT22;56303;52.160;-0.428;2024-02-14T13:13:36;15.70;99.90
20744;DHT22;56303;52.160;-0.428;2024-02-14T13:16:04;15.60;99.90
20744;DHT22;56303;52.160;-0.428;2024-02-14T13:18:33;15.70;99.90
20744;DHT22;56303;52.160;-0.428;2024-02-14T13:21:01;15.70;99.90
20744;DHT22;56303;52.160;-0.428;2024-02-14T13:23:28;15.80;99.90
20744;DHT22;56303;52.160;-0.428;2024-02-14T13:25:56;15.50;99.90
20744;DHT22;56303;52.160;-0.428;2024-02-14T13:28:23;15.20;99.90
20744;DHT22;56303;52.160;-0.428;2024-02-14T13:30:50;15.20;99.90
20744;DHT22;56303;52.160;-0.428;2024-02-14T13:33:20;15.20;99.90
20744;DHT22;56303;52.160;-0.428;2024-02-14T13:35:49;15.30;99.90
20744;DHT22;56303;52.160;-0.428;2024-02-14T13:38:16;15.10;99.90
20744;DHT22;56303;52.160;-0.428;2024-02-14T13:40:44;15.50;99.90
20744;DHT22;56303;52.160;-0.428;2024-02-14T13:43:11;15.50;99.90
20744;DHT22;56303;52.160;-0.428;2024-02-14T13:45:43;15.40;99.90
20744;DHT22;56303;52.160;-0.428;2024-02-14T13:48:11;15.30;99.90
20744;DHT22;56303;52.160;-0.428;2024-02-14T13:50:39;15.40;99.90
20744;DHT22;56303;52.160;-0.428;2024-02-14T13:53:06;15.40;99.90
20744;DHT22;56303;52.160;-0.428;2024-02-14T13:55:34;15.30;99.90
20744;DHT22;56303;52.160;-0.428;2024-02-14T13:58:01;15.50;99.90
20744;DHT22;56303;52.160;-0.428;2024-02-14T14:00:28;15.60;99.90
20744;DHT22;56303;52.160;-0.428;2024-02-14T14:02:55;16.00;99.90
20744;DHT22;56303;52.160;-0.428;2024-02-14T14:05:23;15.80;99.90
20744;DHT22;56303;52.160;-0.428;2024-02-14T14:07:50;16.30;99.90
20744;DHT22;56303;52.160;-0.428;2024-02-14T14:10:25;17.80;99.90
20744;DHT22;56303;52.160;-0.428;2024-02-14T14:12:54;16.20;99.90
20744;DHT22;56303;52.160;-0.428;2024-02-14T14:15:21;16.10;99.90
20744;DHT22;56303;52.160;-0.428;2024-02-14T14:17:50;16.00;99.90
20744;DHT22;56303;52.160;-0.428;2024-02-14T14:20:18;16.00;99.90
20744;DHT22;56303;52.160;-0.428;2024-02-14T14:22:46;15.70;99.90
20744;DHT22;56303;52.160;-0.428;2024-02-14T14:25:14;15.50;99.90
20744;DHT22;56303;52.160;-0.428;2024-02-14T14:27:42;15.70;99.90
20744;DHT22;56303;52.160;-0.428;2024-02-14T14:30:10;16.10;99.90
20744;DHT22;56303;52.160;-0.428;2024-02-14T14:32:38;16.20;99.90
20744;DHT22;56303;52.160;-0.428;2024-02-14T14:35:07;16.20;99.90
20744;DHT22;56303;52.160;-0.428;2024-02-14T14:37:37;16.20;99.90
20744;DHT22;56303;52.160;-0.428;2024-02-14T14:40:05;16.00;99.90
20744;DHT22;56303;52.160;-0.428;2024-02-14T14:42:35;16.30;99.90
20744;DHT22;56303;52.160;-0.428;2024-02-14T14:45:03;16.20;99.90
20744;DHT22;56303;52.160;-0.428;2024-02-14T14:47:30;16.20;99.90
20744;DHT22;56303;52.160;-0.428;2024-02-14T14:49:58;16.10;99.90
20744;DHT22;56303;52.160;-0.428;2024-02-14T14:52:26;15.90;99.90
20744;DHT22;56303;52.160;-0.428;2024-02-14T14:54:53;15.70;99.90
20744;DHT22;56303;52.160;-0.428;2024-02-14T14:57:20;15.60;99.90
20744;DHT22;56303;52.160;-0.428;2024-02-14T14:59:48;15.80;99.90
20744;DHT22;56303;52.160;-0.428;2024-02-14T15:02:15;15.70;99.90
20744;DHT22;56303;52.160;-0.428;2024-02-14T15:04:42;15.50;99.90
20744;DHT22;56303;52.160;-0.428;2024-02-14T15:07:11;15.40;99.90
20744;DHT22;56303;52.160;-0.428;2024-02-14T15:09:38;15.60;99.90
20744;DHT22;56303;52.160;-0.428;2024-02-14T15:12:06;15.60;99.90
20744;DHT22;56303;52.160;-0.428;2024-02-14T15:14:33;15.70;99.90
20744;DHT22;56303;52.160;-0.428;2024-02-14T15:17:00;15.80;99.90
20744;DHT22;56303;52.160;-0.428;2024-02-14T15:19:27;15.90;99.90
20744;DHT22;56303;52.160;-0.428;2024-02-14T15:21:54;15.70;99.90